Time;durP1;ratioP1;P1;durP2;ratioP2;P2;SDS_P1;SDS_P2;PMS_P1;PMS_P2;Temp;Humidity;BMP_temperature;BMP_pressure;BME280_temperature;BME280_humidity;BME280_pressure;Samples;Min_cycle;Max_cycle;Signal;HPM_P1;HPM_P2
2022/11/20 00:01:44;;;;;;;211.72;70.20;;;;;;;-4.80;72.91;98244.00;1712018;83;25762;-76
2022/11/20 00:04:11;;;;;;;230.20;73.87;;;;;;;-4.74;72.65;98234.29;1712010;83;25750;-77
2022/11/20 00:06:38;;;;;;;212.42;67.35;;;;;;;-4.93;72.15;98246.31;1712267;83;27410;-66
2022/11/20 00:09:05;;;;;;;206.95;66.50;;;;;;;-5.07;72.76;98242.16;1711940;83;25655;-73
2022/11/20 00:11:32;;;;;;;194.72;62.25;;;;;;;-5.08;73.05;98241.84;1712331;83;25615;-75
2022/11/20 00:14:01;;;;;;;191.73;62.05;;;;;;;-5.06;73.35;98230.43;1711995;83;26864;-71
2022/11/20 00:16:31;;;;;;;156.20;52.38;;;;;;;-5.04;73.35;98231.83;1712196;83;25545;-75
2022/11/20 00:18:58;;;;;;;166.65;56.65;;;;;;;-5.12;75.14;98232.14;1711942;83;29534;-73
2022/11/20 00:21:27;;;;;;;165.20;55.92;;;;;;;-5.17;75.14;98232.80;1711956;83;25652;-75
2022/11/20 00:23:56;;;;;;;152.05;50.88;;;;;;;-5.15;75.13;98229.91;1712403;83;25493;-77
2022/11/20 00:26:25;;;;;;;159.72;52.48;;;;;;;-5.24;75.30;98229.90;1712324;83;25697;-70
2022/11/20 00:28:55;;;;;;;162.57;54.55;;;;;;;-5.26;75.74;98227.45;1712363;83;25419;-76
2022/11/20 00:31:22;;;;;;;158.37;54.75;;;;;;;-5.26;75.77;98223.44;1711997;83;27413;-77
2022/11/20 00:33:50;;;;;;;162.82;55.98;;;;;;;-5.24;75.73;98222.68;1711851;83;25672;-75
2022/11/20 00:36:23;;;;;;;164.25;53.92;;;;;;;-5.19;75.68;98216.67;1712024;83;25615;-76
2022/11/20 00:38:58;;;;;;;156.63;53.73;;;;;;;-5.13;75.85;98219.80;1712409;83;26361;-73
2022/11/20 00:41:26;;;;;;;154.50;51.15;;;;;;;-5.11;75.77;98215.06;1712323;83;25735;-78
2022/11/20 00:43:55;;;;;;;165.75;55.50;;;;;;;-5.08;75.42;98220.47;1712300;83;27463;-78
2022/11/20 00:46:25;;;;;;;184.25;62.43;;;;;;;-5.20;75.40;98215.05;1712233;83;25427;-76
2022/11/20 00:48:52;;;;;;;173.57;59.98;;;;;;;-5.25;75.50;98214.89;1712585;83;25689;-75
2022/11/20 00:51:23;;;;;;;155.90;53.45;;;;;;;-5.27;75.40;98213.77;1711943;83;25671;-72
2022/11/20 00:53:50;;;;;;;171.22;51.83;;;;;;;-5.25;75.84;98216.22;1712182;83;25602;-76
2022/11/20 00:56:19;;;;;;;141.85;50.98;;;;;;;-5.19;76.02;98219.34;1712008;83;27426;-71
2022/11/20 00:58:48;;;;;;;154.68;52.05;;;;;;;-5.18;76.23;98219.66;1712346;83;25612;-76
2022/11/20 01:01:23;;;;;;;140.10;50.03;;;;;;;-5.23;76.19;98220.33;1712207;83;25431;-72
2022/11/20 01:03:52;;;;;;;145.87;50.90;;;;;;;-5.25;76.27;98212.22;1711946;82;25754;-72
2022/11/20 01:06:32;;;;;;;143.45;50.33;;;;;;;-5.25;76.42;98215.72;1712408;83;25715;-70
2022/11/20 01:09:04;;;;;;;137.40;49.57;;;;;;;-5.26;76.27;98207.92;1711529;83;27447;-76
2022/11/20 01:11:37;;;;;;;125.35;44.80;;;;;;;-5.32;76.37;98206.95;1711124;83;25668;-78
2022/11/20 01:14:08;;;;;;;133.57;46.55;;;;;;;-5.35;76.60;98195.37;1712069;83;25587;-75
2022/11/20 01:16:37;;;;;;;127.47;44.83;;;;;;;-5.35;76.76;98198.88;1710388;83;25670;-77
2022/11/20 01:19:07;;;;;;;142.40;50.40;;;;;;;-5.34;77.02;98191.66;1699982;84;25641;-77
2022/11/20 01:21:36;;;;;;;132.07;48.75;;;;;;;-5.34;76.85;98195.16;1699863;84;27468;-73
2022/11/20 01:24:06;;;;;;;138.88;47.73;;;;;;;-5.33;76.89;98200.79;1699842;84;25699;-76
2022/11/20 01:26:36;;;;;;;121.60;46.98;;;;;;;-5.29;76.88;98194.50;1700011;84;25416;-72
2022/11/20 01:29:05;;;;;;;131.47;47.53;;;;;;;-5.34;76.38;98187.66;1700097;84;27262;-76
2022/11/20 01:31:34;;;;;;;145.00;50.78;;;;;;;-5.34;76.38;98187.66;1699802;83;25645;-69
2022/11/20 01:34:07;;;;;;;145.05;50.12;;;;;;;-5.37;76.68;98186.25;1699935;84;28095;-76
2022/11/20 01:36:36;;;;;;;143.28;53.13;;;;;;;-5.36;76.19;98179.86;1699823;84;25439;-73
2022/11/20 01:39:21;;;;;;;145.00;51.80;;;;;;;-5.37;76.31;98177.41;1699608;84;25684;-76
2022/11/20 01:44:59;;;;;;;142.15;50.45;;;;;;;-5.42;75.66;98174.06;1699753;84;25419;-76
2022/11/20 01:47:42;;;;;;;121.95;42.27;;;;;;;-5.43;76.26;98177.78;1699980;83;27380;-76
2022/11/20 01:50:25;;;;;;;121.87;45.88;;;;;;;-5.44;76.71;98170.28;1699736;84;25701;-77
2022/11/20 01:53:02;;;;;;;122.92;44.03;;;;;;;-5.43;77.08;98169.77;1698991;84;25422;-77
2022/11/20 01:55:33;;;;;;;128.68;47.78;;;;;;;-5.40;76.99;98182.69;1699558;84;25738;-73
2022/11/20 01:58:00;;;;;;;122.33;45.20;;;;;;;-5.37;76.78;98172.07;1700248;84;25467;-69
2022/11/20 02:00:27;;;;;;;144.10;46.40;;;;;;;-5.35;76.61;98172.67;1699560;84;27413;-73
2022/11/20 02:03:02;;;;;;;129.63;46.68;;;;;;;-5.29;76.34;98181.14;1699857;84;25649;-68
2022/11/20 02:05:53;;;;;;;130.15;45.80;;;;;;;-5.33;75.86;98182.62;1698557;84;25723;-78
2022/11/20 02:08:22;;;;;;;142.53;44.73;;;;;;;-5.33;75.89;98179.42;1699794;83;25798;-77
2022/11/20 02:10:48;;;;;;;122.00;43.35;;;;;;;-5.33;76.05;98186.09;1699547;84;25672;-77
2022/11/20 02:16:02;;;;;;;123.07;44.05;;;;;;;-5.27;76.20;98194.28;1699537;84;25661;-76
2022/11/20 02:18:30;;;;;;;128.25;46.45;;;;;;;-5.26;76.08;98196.73;1709674;83;25681;-77
2022/11/20 02:21:07;;;;;;;122.17;46.23;;;;;;;-5.25;75.83;98198.86;1712293;83;25807;-76
2022/11/20 02:23:42;;;;;;;134.27;45.73;;;;;;;-5.24;75.99;98199.97;1712039;83;25394;-73
2022/11/20 02:26:12;;;;;;;126.92;45.08;;;;;;;-5.26;76.00;98195.90;1694923;83;27403;-76
2022/11/20 02:28:39;;;;;;;128.30;46.18;;;;;;;-5.23;76.52;98196.80;1712279;83;25450;-77
2022/11/20 02:31:05;;;;;;;131.93;44.83;;;;;;;-5.23;76.47;98201.63;1691391;83;25653;-77
2022/11/20 02:33:32;;;;;;;130.93;48.55;;;;;;;-5.22;76.67;98202.42;1712180;83;25717;-75
2022/11/20 02:35:58;;;;;;;130.32;46.28;;;;;;;-5.22;76.76;98195.23;1711971;83;25678;-73
2022/11/20 02:38:25;;;;;;;130.97;48.30;;;;;;;-5.20;76.62;98199.84;1711988;83;27505;-71
2022/11/20 02:40:51;;;;;;;129.03;46.08;;;;;;;-5.20;76.60;98201.69;1711780;83;25659;-72
2022/11/20 02:43:17;;;;;;;127.30;44.95;;;;;;;-5.26;76.18;98196.73;1711953;83;25418;-77
2022/11/20 02:45:44;;;;;;;126.35;42.38;;;;;;;-5.34;76.35;98203.17;1711962;83;25840;-74
2022/11/20 02:48:11;;;;;;;124.60;45.85;;;;;;;-5.47;76.48;98209.45;1711964;83;25708;-72
2022/11/20 02:50:39;;;;;;;120.82;44.50;;;;;;;-5.49;77.14;98203.53;1711962;83;27508;-73
2022/11/20 02:53:07;;;;;;;121.92;45.03;;;;;;;-5.52;77.28;98203.14;1711999;83;25621;-69
2022/11/20 02:55:33;;;;;;;125.33;47.85;;;;;;;-5.59;77.58;98204.02;1711981;83;25424;-76
2022/11/20 02:58:00;;;;;;;130.43;46.00;;;;;;;-5.59;77.64;98199.18;1711905;83;25735;-78
2022/11/20 03:00:26;;;;;;;136.30;46.98;;;;;;;-5.60;77.96;98204.23;1711963;83;25663;-77
2022/11/20 03:02:52;;;;;;;117.85;42.75;;;;;;;-5.65;78.14;98203.55;1711916;83;27454;-77
2022/11/20 03:05:19;;;;;;;130.32;46.88;;;;;;;-5.74;78.25;98199.02;1711865;83;25462;-72
2022/11/20 03:07:45;;;;;;;125.10;43.98;;;;;;;-5.79;78.34;98206.84;1711859;83;25459;-77
2022/11/20 03:10:12;;;;;;;131.93;47.27;;;;;;;-5.88;78.00;98208.98;1712016;83;25574;-77
2022/11/20 03:12:38;;;;;;;121.05;44.80;;;;;;;-5.92;78.03;98207.78;1711909;83;25608;-77
2022/11/20 03:15:06;;;;;;;117.13;42.58;;;;;;;-5.92;77.85;98213.12;1711880;83;27475;-77
2022/11/20 03:17:33;;;;;;;103.45;39.50;;;;;;;-5.87;77.47;98213.81;1712165;83;25655;-74
2022/11/20 03:19:59;;;;;;;105.00;37.45;;;;;;;-5.83;76.96;98214.49;1712092;83;25674;-77
2022/11/20 03:22:26;;;;;;;139.60;50.15;;;;;;;-5.87;75.88;98208.47;1711826;83;25798;-74
2022/11/20 03:24:52;;;;;;;126.85;44.65;;;;;;;-5.93;75.91;98209.63;1691566;83;25510;-78
2022/11/20 03:27:19;;;;;;;120.85;43.60;;;;;;;-5.92;75.99;98212.62;1712132;83;28522;-69
2022/11/20 03:29:45;;;;;;;113.37;43.35;;;;;;;-5.88;75.89;98212.19;1711969;83;25695;-78
2022/11/20 03:32:11;;;;;;;126.35;45.83;;;;;;;-5.87;76.07;98207.96;1712038;83;25426;-66
2022/11/20 03:34:37;;;;;;;106.45;41.13;;;;;;;-5.84;76.34;98215.50;1712144;83;25825;-76
2022/11/20 03:37:04;;;;;;;123.90;43.73;;;;;;;-5.85;76.17;98214.39;1711994;83;25669;-67
2022/11/20 03:39:30;;;;;;;118.35;43.65;;;;;;;-5.89;76.23;98214.53;1712533;83;28379;-77
2022/11/20 03:41:56;;;;;;;115.00;44.00;;;;;;;-5.85;76.42;98210.38;1712084;83;25649;-76
2022/11/20 03:44:23;;;;;;;124.65;44.05;;;;;;;-5.82;76.52;98211.28;1712084;83;25473;-77
2022/11/20 03:46:49;;;;;;;114.85;42.10;;;;;;;-5.83;76.63;98211.00;1712068;83;25773;-78
2022/11/20 03:49:16;;;;;;;116.28;42.50;;;;;;;-5.84;76.50;98208.04;1712028;83;25695;-75
2022/11/20 03:51:42;;;;;;;112.88;42.58;;;;;;;-5.84;76.02;98211.50;1712029;83;27496;-78
2022/11/20 03:54:09;;;;;;;123.30;43.85;;;;;;;-5.86;76.31;98212.25;1712026;83;26478;-78
2022/11/20 03:56:39;;;;;;;118.42;43.95;;;;;;;-5.81;76.43;98212.94;1712048;83;25431;-79
2022/11/20 03:59:05;;;;;;;111.88;43.70;;;;;;;-5.79;76.18;98213.02;1712513;83;25681;-79
2022/11/20 04:01:37;;;;;;;108.78;41.88;;;;;;;-5.79;76.21;98208.19;1712172;83;25423;-78
2022/11/20 04:04:03;;;;;;;;;;;;;;;-5.87;76.12;98210.63;1714937;83;27482;-78
2022/11/20 04:06:36;;;;;;;109.35;41.10;;;;;;;-5.92;76.73;98209.12;1711958;83;25762;-78
2022/11/20 04:09:04;;;;;;;118.62;42.13;;;;;;;-5.94;76.84;98208.00;1712319;83;25423;-77
2022/11/20 04:11:33;;;;;;;100.53;40.25;;;;;;;-5.82;76.93;98205.95;1712302;83;25814;-69
2022/11/20 04:14:02;;;;;;;113.57;41.45;;;;;;;-5.80;76.13;98202.55;1712367;83;25569;-67
2022/11/20 04:16:35;;;;;;;112.72;43.40;;;;;;;-5.86;76.33;98200.75;1712322;83;27412;-67
2022/11/20 04:19:04;;;;;;;113.60;41.68;;;;;;;-5.94;75.97;98193.83;1716119;83;25478;-72
2022/11/20 04:21:31;;;;;;;111.12;41.50;;;;;;;-5.86;76.08;98194.08;1717706;83;25671;-78
2022/11/20 04:23:58;;;;;;;121.15;42.65;;;;;;;-5.92;75.74;98187.77;1717378;83;25660;-78
2022/11/20 04:26:26;;;;;;;106.43;41.70;;;;;;;-6.00;75.43;98186.19;1717439;83;25615;-78
2022/11/20 04:28:53;;;;;;;101.60;38.42;;;;;;;-6.05;75.63;98182.86;1717685;83;27434;-78
2022/11/20 04:31:24;;;;;;;98.80;37.13;;;;;;;-6.06;75.52;98175.08;1717631;83;25474;-68
2022/11/20 04:33:50;;;;;;;109.60;41.25;;;;;;;-6.07;74.99;98179.59;1716875;83;25750;-76
2022/11/20 04:36:24;;;;;;;103.25;38.45;;;;;;;-6.10;75.06;98176.55;1717721;83;26285;-67
2022/11/20 04:38:57;;;;;;;115.45;41.70;;;;;;;-6.07;74.94;98175.58;1717240;83;25453;-74
2022/11/20 04:41:30;;;;;;;111.70;41.58;;;;;;;-6.07;74.90;98171.58;1717811;83;28231;-76
2022/11/20 04:44:02;;;;;;;120.60;44.38;;;;;;;-6.03;74.74;98171.95;1717748;83;25729;-73
2022/11/20 04:46:31;;;;;;;120.60;40.35;;;;;;;-6.06;75.02;98167.91;1717588;83;25659;-71
2022/11/20 04:48:57;;;;;;;125.25;44.75;;;;;;;-6.04;75.26;98167.12;1717734;83;26430;-71
2022/11/20 04:51:24;;;;;;;124.55;43.48;;;;;;;-5.96;75.69;98173.24;1717371;83;25459;-77
2022/11/20 04:53:51;;;;;;;119.28;43.25;;;;;;;-5.88;75.63;98169.48;1717412;83;27503;-76
2022/11/20 04:56:17;;;;;;;125.87;43.73;;;;;;;-5.88;75.18;98166.28;1717655;83;25496;-72
2022/11/20 04:58:46;;;;;;;125.38;43.58;;;;;;;-5.96;74.88;98171.37;1717335;83;25429;-74
2022/11/20 05:01:20;;;;;;;105.55;40.83;;;;;;;-5.98;74.54;98165.96;1717449;83;26114;-75
2022/11/20 05:03:48;;;;;;;121.97;43.08;;;;;;;-6.12;74.50;98158.60;1716656;83;25643;-74
2022/11/20 05:06:17;;;;;;;112.62;42.78;;;;;;;-6.12;75.24;98158.09;1717761;83;28042;-75
2022/11/20 05:08:50;;;;;;;114.70;41.75;;;;;;;-6.07;74.97;98156.91;1717683;83;25675;-71
2022/11/20 05:11:20;;;;;;;116.25;41.92;;;;;;;-6.20;74.24;98158.35;1717549;83;25712;-72
2022/11/20 05:13:48;;;;;;;128.73;46.47;;;;;;;-6.31;74.90;98147.36;1717890;83;26387;-73
2022/11/20 05:16:20;;;;;;;110.08;39.58;;;;;;;-6.31;76.22;98145.19;1717389;83;25663;-75
2022/11/20 05:18:46;;;;;;;;;;;;;;;-6.31;78.42;98148.69;1718797;83;27529;-65
2022/11/20 05:21:14;;;;;;;119.17;42.27;;;;;;;-6.26;79.28;98144.55;1715100;83;25493;-77
2022/11/20 05:23:41;;;;;;;124.82;44.80;;;;;;;-6.23;78.93;98151.61;1715075;83;25597;-76
2022/11/20 05:26:15;;;;;;;126.67;45.88;;;;;;;-6.23;78.46;98146.78;1714976;82;25799;-76
2022/11/20 05:28:41;;;;;;;133.22;46.60;;;;;;;-6.22;78.25;98149.77;1715422;83;25624;-77
2022/11/20 05:31:11;;;;;;;134.45;48.25;;;;;;;-6.25;78.14;98148.87;1715009;83;27438;-66
2022/11/20 05:33:41;;;;;;;122.37;46.37;;;;;;;-6.21;78.24;98143.39;1715426;83;25597;-75
2022/11/20 05:36:09;;;;;;;135.32;50.73;;;;;;;-6.16;78.01;98140.90;1715405;83;25666;-71
2022/11/20 05:38:35;;;;;;;139.68;47.40;;;;;;;-6.10;78.05;98145.88;1715540;83;25741;-72
2022/11/20 05:41:08;;;;;;;143.17;49.18;;;;;;;-6.06;77.71;98139.06;1715035;83;25458;-72
2022/11/20 05:43:36;;;;;;;141.80;49.63;;;;;;;-6.06;77.44;98135.06;1715557;83;27446;-69
2022/11/20 05:46:04;;;;;;;142.43;48.40;;;;;;;-6.01;77.23;98125.87;1714942;83;25598;-73
2022/11/20 05:48:32;;;;;;;153.65;50.98;;;;;;;-6.00;76.64;98128.82;1715425;82;25699;-77
2022/11/20 05:51:00;;;;;;;159.25;52.23;;;;;;;-6.09;76.24;98124.83;1714970;83;25778;-76
2022/11/20 05:53:26;;;;;;;156.65;54.38;;;;;;;-6.07;76.70;98122.77;1715324;83;25603;-76
2022/11/20 05:56:13;;;;;;;156.67;52.80;;;;;;;-5.97;76.66;98120.89;1715381;83;27569;-76
2022/11/20 05:58:40;;;;;;;134.97;50.15;;;;;;;-5.95;76.15;98122.83;1714978;82;25464;-76
2022/11/20 06:01:14;;;;;;;134.32;48.05;;;;;;;-6.14;76.11;98121.48;1715098;82;25658;-71
2022/11/20 06:03:47;;;;;;;133.57;50.28;;;;;;;-6.11;77.03;98124.21;1715363;83;26315;-73
2022/11/20 06:06:15;;;;;;;121.20;49.18;;;;;;;-6.04;77.30;98126.33;1715080;82;25632;-73
2022/11/20 06:08:42;;;;;;;133.82;49.40;;;;;;;-6.00;77.51;98124.00;1714962;83;27482;-73
2022/11/20 06:11:11;;;;;;;126.92;47.25;;;;;;;-5.99;77.57;98115.77;1715240;83;26269;-72
2022/11/20 06:13:38;;;;;;;111.75;44.50;;;;;;;-6.11;77.53;98123.70;1715403;82;25535;-71
2022/11/20 06:16:05;;;;;;;135.07;49.58;;;;;;;-6.21;77.93;98120.22;1714938;83;27798;-75
2022/11/20 06:18:33;;;;;;;136.72;49.75;;;;;;;-6.19;78.24;98116.00;1714045;83;25626;-76
2022/11/20 06:21:10;;;;;;;140.37;51.40;;;;;;;-6.13;78.19;98116.42;1711873;83;27483;-68
2022/11/20 06:23:37;;;;;;;138.68;48.58;;;;;;;-6.08;78.14;98116.60;1712181;83;25752;-76
2022/11/20 06:26:08;;;;;;;128.12;49.90;;;;;;;-5.98;78.24;98124.09;1711924;83;25621;-76
2022/11/20 06:28:35;;;;;;;138.95;51.05;;;;;;;-6.04;77.49;98117.00;1711644;83;25689;-77
2022/11/20 06:31:01;;;;;;;133.22;50.60;;;;;;;-6.08;77.61;98119.78;1712230;83;25441;-69
2022/11/20 06:33:28;;;;;;;123.30;47.20;;;;;;;-6.13;77.64;98121.77;1711914;83;27451;-67
2022/11/20 06:36:00;;;;;;;121.53;48.68;;;;;;;-6.11;77.76;98119.70;1711700;83;25655;-77
2022/11/20 06:38:28;;;;;;;127.50;45.80;;;;;;;-6.09;77.77;98121.65;1712228;83;25687;-74
2022/11/20 06:40:54;;;;;;;128.82;46.18;;;;;;;-6.08;77.57;98116.60;1711647;83;25866;-66
2022/11/20 06:43:22;;;;;;;128.85;50.83;;;;;;;-6.22;77.63;98119.89;1694902;83;25592;-79
2022/11/20 06:45:56;;;;;;;130.30;48.73;;;;;;;-6.26;77.80;98113.37;1687514;85;27418;-78
2022/11/20 06:48:24;;;;;;;109.95;41.37;;;;;;;-6.30;77.71;98107.64;1699739;83;25611;-68
2022/11/20 06:50:50;;;;;;;121.25;46.42;;;;;;;-6.37;77.78;98111.39;1703516;83;25672;-68
2022/11/20 06:53:17;;;;;;;134.55;48.28;;;;;;;-6.40;78.00;98102.52;1704722;83;25827;-68
2022/11/20 06:55:45;;;;;;;142.55;51.92;;;;;;;-6.38;78.15;98109.26;1716420;83;25688;-79
2022/11/20 06:58:12;;;;;;;148.32;55.50;;;;;;;-6.30;78.49;98111.64;1716285;83;26757;-77
2022/11/20 07:00:39;;;;;;;151.53;56.37;;;;;;;-6.19;78.34;98098.66;1708319;83;25673;-78
2022/11/20 07:03:08;;;;;;;146.05;52.65;;;;;;;-6.06;78.39;98102.54;1697182;83;25428;-75
2022/11/20 07:05:36;;;;;;;140.95;52.03;;;;;;;-6.02;78.03;98090.86;1687665;85;25880;-74
2022/11/20 07:08:03;;;;;;;156.82;54.53;;;;;;;-5.96;77.80;98088.66;1690623;83;25485;-72
2022/11/20 07:10:31;;;;;;;148.85;54.90;;;;;;;-5.82;78.63;98096.52;1700314;83;28233;-80
2022/11/20 07:12:58;;;;;;;142.72;51.92;;;;;;;-5.66;77.98;98097.81;1687571;84;25634;-76
2022/11/20 07:15:26;;;;;;;147.82;54.03;;;;;;;-5.65;77.83;98098.64;1687714;84;25688;-81
2022/11/20 07:17:53;;;;;;;151.97;57.53;;;;;;;-5.64;78.16;98100.27;1687902;84;25755;-78
2022/11/20 07:20:20;;;;;;;141.25;53.40;;;;;;;-5.53;78.17;98103.52;1687654;84;25730;-80
2022/11/20 07:22:46;;;;;;;155.30;58.10;;;;;;;-5.42;78.33;98108.13;1687751;85;27336;-67
2022/11/20 07:25:12;;;;;;;152.93;56.63;;;;;;;-5.30;78.01;98108.70;1687314;85;26177;-76
2022/11/20 07:27:39;;;;;;;140.00;53.38;;;;;;;-5.21;78.01;98110.58;1687933;85;25690;-72
2022/11/20 07:30:07;;;;;;;141.30;55.28;;;;;;;-5.17;78.22;98110.41;1687417;85;25734;-79
2022/11/20 07:32:33;;;;;;;142.37;53.73;;;;;;;-5.14;78.33;98113.15;1687762;84;25663;-77
2022/11/20 07:35:00;;;;;;;156.97;58.25;;;;;;;-5.06;78.65;98105.63;1687537;85;27416;-70
2022/11/20 07:37:26;;;;;;;169.72;59.77;;;;;;;-4.99;78.52;98113.58;1687332;85;25786;-76
2022/11/20 07:39:53;;;;;;;152.95;58.00;;;;;;;-4.89;78.68;98102.87;1687641;85;25588;-81
2022/11/20 07:42:19;;;;;;;143.70;55.15;;;;;;;-4.78;78.70;98100.75;1687386;85;25766;-75
2022/11/20 07:44:46;;;;;;;139.62;52.10;;;;;;;-4.66;78.72;98104.28;1687959;85;25620;-74
2022/11/20 07:47:13;;;;;;;139.37;53.95;;;;;;;-4.50;78.76;98101.18;1687450;85;27349;-76
2022/11/20 07:49:39;;;;;;;141.10;52.03;;;;;;;-4.37;78.96;98097.50;1687311;85;25764;-71
2022/11/20 07:52:05;;;;;;;134.25;50.63;;;;;;;-4.21;78.86;98108.04;1683704;85;25710;-69
2022/11/20 07:54:32;;;;;;;142.77;50.90;;;;;;;-4.06;78.91;98105.73;1687854;85;25814;-69
2022/11/20 07:56:59;;;;;;;133.45;49.67;;;;;;;-3.92;78.78;98103.66;1687632;85;25461;-75
2022/11/20 07:59:25;;;;;;;211.47;68.20;;;;;;;-3.78;78.80;98098.88;1687590;85;27432;-72
2022/11/20 08:01:52;;;;;;;185.75;60.67;;;;;;;-3.63;78.58;98106.95;1687584;85;25736;-79
2022/11/20 08:04:18;;;;;;;186.82;57.90;;;;;;;-3.51;78.24;98109.64;1687587;84;25668;-84
2022/11/20 08:06:45;;;;;;;185.20;64.90;;;;;;;-3.43;78.20;98112.45;1687820;85;25778;-78
2022/11/20 08:09:11;;;;;;;117.85;41.00;;;;;;;-3.34;78.07;98112.39;1688137;85;25669;-67
2022/11/20 08:14:22;;;;;;;93.62;37.42;;;;;;;-3.30;77.78;98114.91;1687565;83;25779;-74
2022/11/20 08:16:50;;;;;;;126.47;48.28;;;;;;;-3.25;78.07;98120.07;1702794;83;25484;-82
2022/11/20 08:19:18;;;;;;;128.40;47.80;;;;;;;-3.17;78.16;98127.73;1697565;83;25801;-85
2022/11/20 08:21:45;;;;;;;120.22;46.92;;;;;;;-3.10;78.14;98129.77;1684335;84;25599;-81
2022/11/20 08:24:12;;;;;;;143.60;51.85;;;;;;;-3.00;78.20;98122.99;1677512;85;27486;-74
2022/11/20 08:26:43;;;;;;;132.52;46.33;;;;;;;-2.88;78.35;98122.40;1677442;85;25631;-83
2022/11/20 08:29:09;;;;;;;113.10;44.27;;;;;;;-2.71;78.19;98114.41;1677677;85;25769;-86
2022/11/20 08:31:36;;;;;;;127.25;47.03;;;;;;;-2.71;78.19;98114.41;1677477;85;27780;-86
2022/11/20 08:34:02;;;;;;;140.15;53.83;;;;;;;-2.60;78.24;98115.41;1677670;85;25466;-84
2022/11/20 08:36:31;;;;;;;109.60;42.98;;;;;;;-2.45;78.26;98117.55;1677911;85;27379;-80
2022/11/20 08:38:57;;;;;;;90.15;35.65;;;;;;;-2.40;77.68;98123.53;1677621;83;25694;-86
2022/11/20 08:41:25;;;;;;;102.38;41.65;;;;;;;-2.35;77.08;98129.01;1677481;85;25423;-87
2022/11/20 08:43:58;;;;;;;110.57;45.30;;;;;;;-2.32;77.04;98130.38;1677551;85;25932;-72
2022/11/20 08:46:36;;;;;;;111.15;41.55;;;;;;;-2.31;77.21;98124.77;1677320;85;25675;-79
2022/11/20 08:49:01;;;;;;;95.83;37.90;;;;;;;-2.23;77.23;98124.08;1676689;85;25638;-79
2022/11/20 08:51:27;;;;;;;109.40;42.73;;;;;;;-2.18;77.01;98120.15;1677762;85;25251;-80
2022/11/20 08:53:53;;;;;;;123.33;48.78;;;;;;;-2.11;77.03;98128.03;1677490;85;25398;-79
2022/11/20 08:56:20;;;;;;;103.12;43.75;;;;;;;-2.05;77.23;98125.19;1677357;85;25640;-77
2022/11/20 08:58:47;;;;;;;103.10;40.55;;;;;;;-1.95;77.15;98131.79;1677890;84;25715;-79
2022/11/20 09:01:13;;;;;;;107.63;41.75;;;;;;;-1.93;76.99;98136.39;1677581;85;27512;-73
2022/11/20 09:03:39;;;;;;;105.35;40.70;;;;;;;-1.87;76.85;98130.05;1677865;85;25755;-80
2022/11/20 09:06:07;;;;;;;93.07;38.75;;;;;;;-1.83;76.87;98123.12;1677463;85;25438;-82
2022/11/20 09:08:35;;;;;;;101.50;43.90;;;;;;;-1.80;76.75;98116.44;1677559;85;25734;-86
2022/11/20 09:11:02;;;;;;;88.52;36.33;;;;;;;-1.68;77.16;98128.42;1677837;85;25424;-78
2022/11/20 09:13:30;;;;;;;95.85;39.48;;;;;;;-1.56;76.91;98122.94;1677636;85;27529;-86
2022/11/20 09:16:00;;;;;;;92.37;37.98;;;;;;;-1.48;76.44;98120.36;1677790;85;25252;-83
2022/11/20 09:18:28;;;;;;;93.62;38.67;;;;;;;-1.41;76.38;98118.34;1677648;85;25424;-83
2022/11/20 09:21:03;;;;;;;92.55;39.10;;;;;;;-1.30;76.60;98112.53;1685942;84;25847;-82
2022/11/20 09:23:33;;;;;;;100.55;40.40;;;;;;;-1.19;76.46;98113.48;1687874;85;25782;-86
2022/11/20 09:26:04;;;;;;;104.90;40.10;;;;;;;-1.07;76.34;98116.86;1688197;85;27559;-83
2022/11/20 09:28:30;;;;;;;;;;;;;;;-0.95;76.40;98117.28;1689404;84;25371;-86
2022/11/20 09:30:58;;;;;;;97.37;41.10;;;;;;;-0.93;75.84;98110.58;1687738;85;25708;-86
2022/11/20 09:33:24;;;;;;;85.87;39.10;;;;;;;-0.87;76.43;98115.47;1687505;85;25773;-85
2022/11/20 09:35:51;;;;;;;89.30;38.28;;;;;;;-0.79;76.05;98114.22;1688028;84;25131;-86
2022/11/20 09:38:17;;;;;;;87.02;35.83;;;;;;;-0.72;75.87;98108.09;1687530;85;27390;-86
2022/11/20 09:41:03;;;;;;;79.65;35.25;;;;;;;-0.62;75.74;98104.71;1687371;84;25734;-85
2022/11/20 09:44:01;;;;;;;74.82;34.27;;;;;;;-0.52;75.57;98094.56;1673631;85;25244;-82
2022/11/20 09:46:54;;;;;;;72.50;31.00;;;;;;;-0.47;75.26;98096.49;1687068;85;27857;-85
2022/11/20 09:49:29;;;;;;;71.45;31.52;;;;;;;-0.46;74.89;98088.72;1687227;85;25668;-81
2022/11/20 09:52:19;;;;;;;57.20;25.57;;;;;;;-0.38;74.98;98081.50;1687216;85;27540;-84
2022/11/20 09:54:46;;;;;;;63.52;28.98;;;;;;;-0.33;74.66;98087.47;1686515;85;27402;-83
2022/11/20 09:57:19;;;;;;;50.85;22.93;;;;;;;-0.28;74.30;98084.83;1687142;85;25516;-82
2022/11/20 10:00:04;;;;;;;58.75;25.75;;;;;;;-0.23;73.80;98086.76;1686738;85;25767;-81
2022/11/20 10:02:53;;;;;;;61.42;27.20;;;;;;;-0.23;73.83;98084.86;1687463;84;25718;-82
2022/11/20 10:05:25;;;;;;;62.95;27.93;;;;;;;-0.21;73.58;98076.00;1683454;85;27393;-75
2022/11/20 10:08:20;;;;;;;55.25;24.80;;;;;;;-0.18;73.21;98076.83;1685263;85;26083;-83
2022/11/20 10:11:37;;;;;;;64.53;28.40;;;;;;;-0.08;73.72;98082.02;1687617;85;25577;-70
2022/11/20 10:14:15;;;;;;;75.37;29.60;;;;;;;0.10;73.97;98071.38;1686189;85;25526;-71
2022/11/20 10:16:58;;;;;;;41.35;20.00;;;;;;;0.35;73.09;98074.75;1678382;85;25788;-73
2022/11/20 10:20:14;;;;;;;48.85;22.45;;;;;;;0.61;72.35;98069.49;1685486;85;27494;-75
2022/11/20 10:23:18;;;;;;;57.95;23.57;;;;;;;0.81;72.44;98063.91;1687389;84;25407;-73
2022/11/20 10:26:08;;;;;;;31.80;15.13;;;;;;;1.04;71.71;98059.15;1687168;85;25426;-76
2022/11/20 10:28:57;;;;;;;47.98;21.42;;;;;;;1.23;70.68;98053.23;1684263;85;25783;-75
2022/11/20 10:31:37;;;;;;;56.10;23.10;;;;;;;1.42;70.94;98047.33;1687621;85;25601;-72
2022/11/20 10:34:25;;;;;;;57.30;25.25;;;;;;;1.72;71.28;98041.66;1684673;85;27406;-72
2022/11/20 10:37:08;;;;;;;88.12;39.90;;;;;;;2.18;70.53;98044.86;1687429;85;25415;-72
2022/11/20 10:39:43;;;;;;;65.37;26.80;;;;;;;2.49;69.36;98041.27;1687119;85;25442;-72
2022/11/20 10:42:15;;;;;;;76.97;35.13;;;;;;;2.58;68.87;98040.97;1687354;85;25570;-71
2022/11/20 10:45:01;;;;;;;121.82;53.52;;;;;;;2.63;67.66;98033.38;1688256;84;25580;-71
2022/11/20 10:47:31;;;;;;;78.05;35.63;;;;;;;2.71;69.12;98031.44;1687818;84;27380;-71
2022/11/20 10:50:05;;;;;;;49.63;22.67;;;;;;;2.85;68.17;98033.00;1688039;84;25731;-70
2022/11/20 10:52:49;;;;;;;55.15;25.17;;;;;;;3.05;67.61;98033.19;1688080;85;25692;-70
2022/11/20 10:55:42;;;;;;;309.18;82.27;;;;;;;3.09;66.36;98029.65;1687436;85;25803;-70
2022/11/20 10:58:32;;;;;;;54.35;23.02;;;;;;;3.12;67.30;98030.97;1687710;85;25683;-70
2022/11/20 11:01:18;;;;;;;45.60;22.48;;;;;;;3.13;66.09;98027.17;1687129;85;27503;-70
2022/11/20 11:03:45;;;;;;;63.30;25.65;;;;;;;3.10;66.13;98031.25;1687577;85;25647;-69
2022/11/20 11:06:32;;;;;;;80.28;33.65;;;;;;;3.11;66.19;98037.48;1687697;85;25623;-70
2022/11/20 11:09:06;;;;;;;79.12;31.42;;;;;;;3.11;66.98;98032.86;1687979;84;25676;-70
2022/11/20 11:11:34;;;;;;;48.65;21.65;;;;;;;3.18;66.80;98031.75;1687447;85;25672;-71
2022/11/20 11:14:12;;;;;;;52.27;24.35;;;;;;;3.14;66.83;98033.66;1684027;85;27427;-70
2022/11/20 11:16:55;;;;;;;48.00;21.17;;;;;;;3.06;66.66;98038.86;1687917;85;25584;-70
2022/11/20 11:19:23;;;;;;;44.30;20.62;;;;;;;2.88;66.58;98035.72;1687257;85;25746;-70
2022/11/20 11:21:57;;;;;;;56.15;31.30;;;;;;;2.64;66.67;98039.05;1701524;84;25735;-71
2022/11/20 11:24:27;;;;;;;57.73;26.02;;;;;;;2.54;67.83;98029.09;1702706;84;25655;-71
2022/11/20 11:27:04;;;;;;;36.27;18.27;;;;;;;2.50;68.25;98032.88;1703280;84;27486;-71
2022/11/20 11:29:31;;;;;;;64.55;30.72;;;;;;;2.41;67.96;98028.30;1702790;83;25469;-70
2022/11/20 11:32:21;;;;;;;59.63;28.83;;;;;;;2.39;68.88;98023.20;1702554;84;25683;-68
2022/11/20 11:35:04;;;;;;;45.30;20.43;;;;;;;2.42;68.75;98023.18;1703009;84;25725;-68
2022/11/20 11:37:39;;;;;;;43.38;21.45;;;;;;;2.32;68.47;98022.66;1702636;84;25606;-69